RYR3155 URKA-UKBB
Flight info
| Callsign | RYR3155 |
|---|---|
| Flight time | 1h 14m |
| Altitude | 38000 |
| Route | TIBET1F TIBET DCT DOTEL DCT KONIP |
| Aircraft | B738/M-SDE2E3FGHIRWXY/LB1 |
Departure
| Time | 2026-04-14 14:34 |
|---|---|
| Airport | Anapa Vityazevo Airport (URKA) |
Arrival
| Time | 2026-04-14 15:48 |
|---|---|
| Airport | Boryspil International Airport (UKBB) |
| Time | Latitude | Longitude | Altitude | Speed | Heading |
|---|---|---|---|---|---|
| 2026-04-14 14:19 | 45.00565 | 37.34714 | 170 ft | 0 kts | 313° |
| 2026-04-14 14:29 | 45.00568 | 37.34709 | 170 ft | 2 kts | 313° |
| 2026-04-14 14:29 | 45.00600 | 37.34687 | 170 ft | 7 kts | 17° |
| 2026-04-14 14:29 | 45.00597 | 37.34744 | 171 ft | 7 kts | 128° |
| 2026-04-14 14:30 | 45.00571 | 37.34801 | 171 ft | 7 kts | 103° |
| 2026-04-14 14:30 | 45.00577 | 37.34867 | 172 ft | 7 kts | 66° |
| 2026-04-14 14:30 | 45.00610 | 37.34915 | 172 ft | 7 kts | 41° |
| 2026-04-14 14:30 | 45.00644 | 37.34958 | 173 ft | 7 kts | 41° |
| 2026-04-14 14:31 | 45.00683 | 37.35007 | 174 ft | 8 kts | 44° |
| 2026-04-14 14:31 | 45.00731 | 37.35069 | 175 ft | 11 kts | 39° |
| 2026-04-14 14:31 | 45.00793 | 37.35147 | 176 ft | 13 kts | 49° |
| 2026-04-14 14:31 | 45.00865 | 37.35247 | 178 ft | 16 kts | 43° |
| 2026-04-14 14:32 | 45.00952 | 37.35365 | 180 ft | 18 kts | 45° |
| 2026-04-14 14:32 | 45.01037 | 37.35483 | 181 ft | 14 kts | 45° |
| 2026-04-14 14:32 | 45.01077 | 37.35553 | 182 ft | 13 kts | 66° |
| 2026-04-14 14:32 | 45.01066 | 37.35669 | 183 ft | 11 kts | 104° |
| 2026-04-14 14:33 | 45.01020 | 37.35741 | 182 ft | 10 kts | 182° |
| 2026-04-14 14:33 | 45.00991 | 37.35720 | 181 ft | 0 kts | 219° |
| 2026-04-14 14:33 | 45.00939 | 37.35652 | 179 ft | 46 kts | 223° |
| 2026-04-14 14:33 | 45.00442 | 37.35017 | 171 ft | 142 kts | 224° |
| 2026-04-14 14:34 | 44.98742 | 37.32685 | 2051 ft | 184 kts | 224° |
| 2026-04-14 14:34 | 44.97869 | 37.31387 | 3328 ft | 184 kts | 246° |
| 2026-04-14 14:34 | 44.97780 | 37.29551 | 4140 ft | 199 kts | 291° |
| 2026-04-14 14:35 | 44.98577 | 37.27944 | 5251 ft | 204 kts | 315° |
| 2026-04-14 14:35 | 44.99860 | 37.26962 | 6282 ft | 215 kts | 340° |
| 2026-04-14 14:35 | 45.01320 | 37.26372 | 7264 ft | 222 kts | 341° |
| 2026-04-14 14:35 | 45.02850 | 37.25781 | 8100 ft | 233 kts | 341° |
| 2026-04-14 14:36 | 45.04423 | 37.25178 | 9003 ft | 241 kts | 341° |
| 2026-04-14 14:36 | 45.06070 | 37.24548 | 9926 ft | 247 kts | 342° |
| 2026-04-14 14:36 | 45.07793 | 37.23885 | 10621 ft | 269 kts | 342° |
| 2026-04-14 14:36 | 45.09711 | 37.23140 | 10966 ft | 304 kts | 342° |
| 2026-04-14 14:37 | 45.11870 | 37.22301 | 11275 ft | 337 kts | 342° |
| 2026-04-14 14:37 | 45.14177 | 37.21408 | 12140 ft | 347 kts | 342° |
| 2026-04-14 14:37 | 45.16517 | 37.20505 | 13368 ft | 349 kts | 342° |
| 2026-04-14 14:37 | 45.18874 | 37.19593 | 14442 ft | 353 kts | 342° |
| 2026-04-14 14:38 | 45.21258 | 37.18667 | 15378 ft | 357 kts | 342° |
| 2026-04-14 14:38 | 45.23663 | 37.17731 | 16298 ft | 361 kts | 342° |
| 2026-04-14 14:38 | 45.26100 | 37.16781 | 17179 ft | 365 kts | 342° |
| 2026-04-14 14:38 | 45.28564 | 37.15818 | 18029 ft | 369 kts | 342° |
| 2026-04-14 14:39 | 45.31054 | 37.14845 | 18790 ft | 373 kts | 342° |
| 2026-04-14 14:39 | 45.33518 | 37.13642 | 19454 ft | 376 kts | 334° |
| 2026-04-14 14:39 | 45.35835 | 37.11883 | 20112 ft | 380 kts | 327° |
| 2026-04-14 14:39 | 45.37958 | 37.09624 | 20741 ft | 383 kts | 319° |
| 2026-04-14 14:40 | 45.39930 | 37.07108 | 21354 ft | 387 kts | 318° |
| 2026-04-14 14:40 | 45.41928 | 37.04493 | 21930 ft | 392 kts | 318° |
| 2026-04-14 14:40 | 45.43940 | 37.01841 | 22487 ft | 396 kts | 318° |
| 2026-04-14 14:40 | 45.45972 | 36.99165 | 23044 ft | 400 kts | 318° |
| 2026-04-14 14:41 | 45.48030 | 36.96462 | 23573 ft | 403 kts | 318° |
| 2026-04-14 14:41 | 45.50106 | 36.93744 | 24032 ft | 407 kts | 318° |
| 2026-04-14 14:41 | 45.52203 | 36.91004 | 24468 ft | 410 kts | 318° |
| 2026-04-14 14:41 | 45.54317 | 36.88243 | 24888 ft | 413 kts | 318° |
| 2026-04-14 14:42 | 45.56444 | 36.85466 | 25283 ft | 416 kts | 318° |
| 2026-04-14 14:42 | 45.58594 | 36.82657 | 25669 ft | 419 kts | 318° |
| 2026-04-14 14:42 | 45.60728 | 36.79866 | 26037 ft | 422 kts | 318° |
| 2026-04-14 14:42 | 45.62901 | 36.77023 | 26410 ft | 425 kts | 318° |
| 2026-04-14 14:43 | 45.65085 | 36.74161 | 26770 ft | 428 kts | 318° |
| 2026-04-14 14:43 | 45.67285 | 36.71275 | 27109 ft | 430 kts | 318° |
| 2026-04-14 14:43 | 45.69496 | 36.68371 | 27437 ft | 433 kts | 317° |
| 2026-04-14 14:43 | 45.71723 | 36.65444 | 27771 ft | 436 kts | 317° |
| 2026-04-14 14:44 | 45.73965 | 36.62492 | 28074 ft | 438 kts | 317° |
| 2026-04-14 14:44 | 45.76217 | 36.59525 | 28377 ft | 441 kts | 317° |
| 2026-04-14 14:44 | 45.78476 | 36.56545 | 28668 ft | 443 kts | 317° |
| 2026-04-14 14:44 | 45.80750 | 36.53541 | 28967 ft | 445 kts | 317° |
| 2026-04-14 14:45 | 45.83024 | 36.50534 | 29354 ft | 445 kts | 317° |
| 2026-04-14 14:45 | 45.85300 | 36.47521 | 29806 ft | 443 kts | 317° |
| 2026-04-14 14:45 | 45.87535 | 36.44559 | 30231 ft | 442 kts | 317° |
| 2026-04-14 14:45 | 45.89792 | 36.41564 | 30562 ft | 442 kts | 317° |
| 2026-04-14 14:46 | 45.92049 | 36.38565 | 30906 ft | 441 kts | 317° |
| 2026-04-14 14:46 | 45.94295 | 36.35578 | 31276 ft | 439 kts | 317° |
| 2026-04-14 14:46 | 45.96538 | 36.32591 | 31626 ft | 438 kts | 317° |
| 2026-04-14 14:46 | 45.98771 | 36.29615 | 31973 ft | 437 kts | 317° |
| 2026-04-14 14:47 | 46.01008 | 36.26630 | 32311 ft | 436 kts | 317° |
| 2026-04-14 14:47 | 46.03228 | 36.23663 | 32667 ft | 434 kts | 317° |
| 2026-04-14 14:47 | 46.05410 | 36.20744 | 33027 ft | 433 kts | 317° |
| 2026-04-14 14:47 | 46.07612 | 36.17795 | 33361 ft | 432 kts | 317° |
| 2026-04-14 14:48 | 46.09810 | 36.14848 | 33664 ft | 432 kts | 317° |
| 2026-04-14 14:48 | 46.12006 | 36.11900 | 33983 ft | 431 kts | 317° |
| 2026-04-14 14:48 | 46.14194 | 36.08960 | 34307 ft | 429 kts | 317° |
| 2026-04-14 14:48 | 46.16381 | 36.06018 | 34531 ft | 430 kts | 317° |
| 2026-04-14 14:49 | 46.18569 | 36.03072 | 34712 ft | 431 kts | 317° |
| 2026-04-14 14:49 | 46.20760 | 36.00117 | 34917 ft | 431 kts | 317° |
| 2026-04-14 14:49 | 46.22953 | 35.97156 | 35152 ft | 431 kts | 317° |
| 2026-04-14 14:49 | 46.25141 | 35.94199 | 35384 ft | 431 kts | 317° |
| 2026-04-14 14:50 | 46.27330 | 35.91238 | 35589 ft | 431 kts | 317° |
| 2026-04-14 14:50 | 46.29520 | 35.88271 | 35801 ft | 431 kts | 317° |
| 2026-04-14 14:50 | 46.31707 | 35.85305 | 36030 ft | 431 kts | 317° |
| 2026-04-14 14:50 | 46.33895 | 35.82334 | 36178 ft | 433 kts | 317° |
| 2026-04-14 14:51 | 46.36106 | 35.79329 | 36176 ft | 438 kts | 317° |
| 2026-04-14 14:51 | 46.40550 | 35.73277 | 36194 ft | 444 kts | 317° |
| 2026-04-14 14:52 | 46.45078 | 35.67097 | 36187 ft | 449 kts | 317° |
| 2026-04-14 14:52 | 46.49639 | 35.60857 | 36181 ft | 451 kts | 317° |
| 2026-04-14 14:53 | 46.54116 | 35.54715 | 36164 ft | 433 kts | 317° |
| 2026-04-14 14:53 | 46.58473 | 35.48726 | 36175 ft | 429 kts | 317° |
| 2026-04-14 14:54 | 46.62802 | 35.42761 | 36178 ft | 428 kts | 316° |
| 2026-04-14 14:54 | 46.67118 | 35.36801 | 36177 ft | 428 kts | 316° |
| 2026-04-14 14:55 | 46.71430 | 35.30830 | 36178 ft | 427 kts | 316° |
| 2026-04-14 14:55 | 46.75739 | 35.24852 | 36179 ft | 428 kts | 316° |
| 2026-04-14 14:56 | 46.82176 | 35.15894 | 36177 ft | 429 kts | 316° |
| 2026-04-14 14:56 | 46.86491 | 35.09873 | 36176 ft | 429 kts | 316° |
| 2026-04-14 14:57 | 46.90812 | 35.03827 | 36176 ft | 430 kts | 316° |
| 2026-04-14 14:57 | 46.95135 | 34.97765 | 36178 ft | 430 kts | 316° |
| 2026-04-14 14:58 | 46.99458 | 34.91689 | 36179 ft | 431 kts | 316° |
| 2026-04-14 14:58 | 47.03781 | 34.85599 | 36177 ft | 431 kts | 316° |
| 2026-04-14 14:59 | 47.08098 | 34.79503 | 36177 ft | 431 kts | 316° |
| 2026-04-14 14:59 | 47.12408 | 34.73402 | 36176 ft | 430 kts | 316° |
| 2026-04-14 15:00 | 47.16709 | 34.67299 | 36177 ft | 429 kts | 316° |
| 2026-04-14 15:00 | 47.20976 | 34.61230 | 36175 ft | 429 kts | 316° |
| 2026-04-14 15:01 | 47.25254 | 34.55132 | 36175 ft | 428 kts | 316° |
| 2026-04-14 15:01 | 47.29525 | 34.49028 | 36176 ft | 427 kts | 316° |
| 2026-04-14 15:02 | 47.33779 | 34.42935 | 36177 ft | 426 kts | 316° |
| 2026-04-14 15:02 | 47.38041 | 34.36816 | 36177 ft | 426 kts | 316° |
| 2026-04-14 15:03 | 47.42254 | 34.30753 | 36178 ft | 425 kts | 316° |
| 2026-04-14 15:03 | 47.46487 | 34.24645 | 36176 ft | 425 kts | 316° |
| 2026-04-14 15:04 | 47.50715 | 34.18531 | 36176 ft | 425 kts | 316° |
| 2026-04-14 15:04 | 47.54933 | 34.12418 | 36173 ft | 424 kts | 316° |
| 2026-04-14 15:05 | 47.59142 | 34.06302 | 36184 ft | 424 kts | 316° |
| 2026-04-14 15:05 | 47.63355 | 34.00166 | 36186 ft | 424 kts | 316° |
| 2026-04-14 15:06 | 47.67556 | 33.94033 | 36179 ft | 424 kts | 316° |
| 2026-04-14 15:06 | 47.71752 | 33.87892 | 36183 ft | 424 kts | 316° |
| 2026-04-14 15:07 | 47.75950 | 33.81734 | 36180 ft | 424 kts | 316° |
| 2026-04-14 15:07 | 47.80123 | 33.75597 | 36186 ft | 423 kts | 316° |
| 2026-04-14 15:08 | 47.84307 | 33.69430 | 36183 ft | 423 kts | 316° |
| 2026-04-14 15:08 | 47.88486 | 33.63255 | 36179 ft | 423 kts | 316° |
| 2026-04-14 15:09 | 47.92713 | 33.57155 | 36183 ft | 422 kts | 321° |
| 2026-04-14 15:09 | 47.97360 | 33.51892 | 36181 ft | 422 kts | 323° |
| 2026-04-14 15:10 | 48.02082 | 33.46670 | 36186 ft | 422 kts | 323° |
| 2026-04-14 15:10 | 48.06788 | 33.41422 | 36181 ft | 422 kts | 323° |
| 2026-04-14 15:11 | 48.11484 | 33.36143 | 36183 ft | 422 kts | 323° |
| 2026-04-14 15:11 | 48.16172 | 33.30849 | 36183 ft | 422 kts | 323° |
| 2026-04-14 15:12 | 48.20857 | 33.25544 | 36185 ft | 422 kts | 323° |
| 2026-04-14 15:12 | 48.25515 | 33.20257 | 36185 ft | 422 kts | 323° |
| 2026-04-14 15:13 | 48.30196 | 33.14932 | 36186 ft | 422 kts | 323° |
| 2026-04-14 15:13 | 48.34871 | 33.09601 | 36188 ft | 422 kts | 323° |
| 2026-04-14 15:14 | 48.39552 | 33.04251 | 36189 ft | 422 kts | 323° |
| 2026-04-14 15:14 | 48.44228 | 32.98894 | 36187 ft | 422 kts | 323° |
| 2026-04-14 15:15 | 48.48902 | 32.93527 | 36190 ft | 422 kts | 323° |
| 2026-04-14 15:15 | 48.53570 | 32.88154 | 36193 ft | 422 kts | 323° |
| 2026-04-14 15:16 | 48.58237 | 32.82768 | 36192 ft | 422 kts | 323° |
| 2026-04-14 15:16 | 48.62904 | 32.77371 | 36189 ft | 422 kts | 323° |
| 2026-04-14 15:17 | 48.67531 | 32.72006 | 36195 ft | 421 kts | 323° |
| 2026-04-14 15:17 | 48.72210 | 32.66569 | 36195 ft | 421 kts | 323° |
| 2026-04-14 15:18 | 48.76825 | 32.61193 | 36194 ft | 421 kts | 322° |
| 2026-04-14 15:18 | 48.81465 | 32.55775 | 36202 ft | 421 kts | 322° |
| 2026-04-14 15:19 | 48.85329 | 32.51253 | 36197 ft | 421 kts | 322° |
| 2026-04-14 15:19 | 48.89966 | 32.45814 | 36199 ft | 421 kts | 322° |
| 2026-04-14 15:20 | 48.94600 | 32.40366 | 36198 ft | 421 kts | 322° |
| 2026-04-14 15:20 | 48.99237 | 32.34902 | 36198 ft | 421 kts | 322° |
| 2026-04-14 15:21 | 49.03869 | 32.29430 | 36203 ft | 421 kts | 322° |
| 2026-04-14 15:21 | 49.08501 | 32.23945 | 36205 ft | 421 kts | 322° |
| 2026-04-14 15:22 | 49.13125 | 32.18455 | 36208 ft | 421 kts | 322° |
| 2026-04-14 15:22 | 49.17756 | 32.12944 | 36206 ft | 422 kts | 322° |
| 2026-04-14 15:23 | 49.22388 | 32.07419 | 36206 ft | 421 kts | 322° |
| 2026-04-14 15:23 | 49.27008 | 32.01894 | 36206 ft | 422 kts | 322° |
| 2026-04-14 15:24 | 49.31605 | 31.96384 | 36204 ft | 422 kts | 322° |
| 2026-04-14 15:24 | 49.33935 | 31.93585 | 35709 ft | 428 kts | 322° |
| 2026-04-14 15:24 | 49.36259 | 31.90791 | 35146 ft | 422 kts | 322° |
| 2026-04-14 15:25 | 49.38564 | 31.88015 | 34507 ft | 420 kts | 322° |
| 2026-04-14 15:25 | 49.40856 | 31.85252 | 33675 ft | 419 kts | 322° |
| 2026-04-14 15:25 | 49.43133 | 31.82503 | 32976 ft | 413 kts | 322° |
| 2026-04-14 15:25 | 49.45374 | 31.79794 | 32142 ft | 406 kts | 323° |
| 2026-04-14 15:26 | 49.47574 | 31.77132 | 31352 ft | 399 kts | 323° |
| 2026-04-14 15:26 | 49.49724 | 31.74527 | 30534 ft | 395 kts | 323° |
| 2026-04-14 15:26 | 49.51847 | 31.71952 | 29916 ft | 383 kts | 323° |
| 2026-04-14 15:26 | 49.53912 | 31.69443 | 29351 ft | 372 kts | 323° |
| 2026-04-14 15:27 | 49.55915 | 31.67009 | 28802 ft | 361 kts | 323° |
| 2026-04-14 15:27 | 49.57863 | 31.64639 | 28270 ft | 352 kts | 323° |
| 2026-04-14 15:27 | 49.59779 | 31.62308 | 27761 ft | 352 kts | 323° |
| 2026-04-14 15:27 | 49.61740 | 31.59921 | 27229 ft | 367 kts | 323° |
| 2026-04-14 15:28 | 49.63800 | 31.57411 | 26648 ft | 386 kts | 323° |
| 2026-04-14 15:28 | 49.65868 | 31.54883 | 26061 ft | 380 kts | 323° |
| 2026-04-14 15:28 | 49.67915 | 31.52377 | 25224 ft | 374 kts | 323° |
| 2026-04-14 15:28 | 49.69953 | 31.49880 | 24076 ft | 375 kts | 323° |
| 2026-04-14 15:29 | 49.72041 | 31.47432 | 22777 ft | 376 kts | 328° |
| 2026-04-14 15:29 | 49.74353 | 31.45552 | 21562 ft | 376 kts | 336° |
| 2026-04-14 15:29 | 49.76799 | 31.44144 | 20452 ft | 375 kts | 343° |
| 2026-04-14 15:29 | 49.79346 | 31.43326 | 19363 ft | 375 kts | 352° |
| 2026-04-14 15:30 | 49.81941 | 31.42871 | 18316 ft | 375 kts | 353° |
| 2026-04-14 15:30 | 49.84519 | 31.42457 | 17463 ft | 368 kts | 353° |
| 2026-04-14 15:30 | 49.87054 | 31.42042 | 16840 ft | 365 kts | 353° |
| 2026-04-14 15:30 | 49.89565 | 31.41611 | 16265 ft | 361 kts | 353° |
| 2026-04-14 15:31 | 49.92052 | 31.41172 | 15707 ft | 357 kts | 353° |
| 2026-04-14 15:31 | 49.94508 | 31.40732 | 15172 ft | 354 kts | 353° |
| 2026-04-14 15:31 | 49.96950 | 31.40338 | 14547 ft | 352 kts | 354° |
| 2026-04-14 15:31 | 49.99359 | 31.39840 | 13969 ft | 349 kts | 343° |
| 2026-04-14 15:32 | 50.01517 | 31.38163 | 13360 ft | 346 kts | 323° |
| 2026-04-14 15:32 | 50.03165 | 31.35464 | 12800 ft | 346 kts | 306° |
| 2026-04-14 15:32 | 50.04162 | 31.32135 | 12320 ft | 345 kts | 289° |
| 2026-04-14 15:32 | 50.04503 | 31.28448 | 11944 ft | 343 kts | 273° |
| 2026-04-14 15:33 | 50.04236 | 31.24774 | 10513 ft | 347 kts | 263° |
| 2026-04-14 15:33 | 50.03203 | 31.20939 | 7910 ft | 411 kts | 235° |
| 2026-04-14 15:33 | 50.01517 | 31.17685 | 8025 ft | 383 kts | 233° |
| 2026-04-14 15:33 | 49.99698 | 31.14741 | 7866 ft | 358 kts | 222° |
| 2026-04-14 15:34 | 49.97780 | 31.12400 | 7792 ft | 342 kts | 213° |
| 2026-04-14 15:34 | 49.95871 | 31.10664 | 8140 ft | 313 kts | 212° |
| 2026-04-14 15:34 | 49.93996 | 31.09041 | 8048 ft | 301 kts | 213° |
| 2026-04-14 15:34 | 49.92366 | 31.07113 | 8033 ft | 287 kts | 222° |
| 2026-04-14 15:35 | 49.90848 | 31.05178 | 7947 ft | 278 kts | 222° |
| 2026-04-14 15:35 | 49.89369 | 31.03292 | 7779 ft | 272 kts | 222° |
| 2026-04-14 15:35 | 49.87965 | 31.01497 | 7516 ft | 271 kts | 222° |
| 2026-04-14 15:35 | 49.86515 | 30.99641 | 7257 ft | 270 kts | 222° |
| 2026-04-14 15:36 | 49.85092 | 30.97764 | 6975 ft | 267 kts | 230° |
| 2026-04-14 15:36 | 49.84258 | 30.95303 | 6790 ft | 252 kts | 262° |
| 2026-04-14 15:36 | 49.83981 | 30.92730 | 6605 ft | 242 kts | 265° |
| 2026-04-14 15:36 | 49.83721 | 30.90132 | 6246 ft | 240 kts | 265° |
| 2026-04-14 15:37 | 49.83477 | 30.87628 | 5933 ft | 236 kts | 265° |
| 2026-04-14 15:37 | 49.83497 | 30.85147 | 5531 ft | 229 kts | 292° |
| 2026-04-14 15:37 | 49.84450 | 30.83295 | 5174 ft | 221 kts | 332° |
| 2026-04-14 15:37 | 49.85916 | 30.82865 | 4887 ft | 217 kts | 6° |
| 2026-04-14 15:38 | 49.87390 | 30.83294 | 4564 ft | 215 kts | 9° |
| 2026-04-14 15:38 | 49.88843 | 30.83854 | 4199 ft | 216 kts | 17° |
| 2026-04-14 15:38 | 49.90246 | 30.84674 | 3848 ft | 215 kts | 19° |
| 2026-04-14 15:38 | 49.91641 | 30.85505 | 3508 ft | 215 kts | 18° |
| 2026-04-14 15:39 | 49.93032 | 30.86327 | 3400 ft | 214 kts | 13° |
| 2026-04-14 15:39 | 49.94507 | 30.86534 | 3350 ft | 213 kts | 359° |
| 2026-04-14 15:39 | 49.95975 | 30.86586 | 3349 ft | 215 kts | 0° |
| 2026-04-14 15:39 | 49.97439 | 30.86675 | 3352 ft | 203 kts | 0° |
| 2026-04-14 15:40 | 49.98797 | 30.86768 | 3313 ft | 187 kts | 0° |
| 2026-04-14 15:40 | 50.00051 | 30.86852 | 3312 ft | 177 kts | 0° |
| 2026-04-14 15:40 | 50.01275 | 30.86934 | 3342 ft | 176 kts | 0° |
| 2026-04-14 15:40 | 50.02522 | 30.87018 | 3422 ft | 186 kts | 0° |
| 2026-04-14 15:41 | 50.03882 | 30.87110 | 3849 ft | 201 kts | 1° |
| 2026-04-14 15:41 | 50.05262 | 30.87208 | 4310 ft | 200 kts | 1° |
| 2026-04-14 15:41 | 50.06675 | 30.87258 | 4315 ft | 203 kts | 355° |
| 2026-04-14 15:41 | 50.08085 | 30.87096 | 4323 ft | 202 kts | 355° |
| 2026-04-14 15:42 | 50.09496 | 30.86946 | 4255 ft | 203 kts | 355° |
| 2026-04-14 15:42 | 50.10880 | 30.86787 | 4118 ft | 194 kts | 353° |
| 2026-04-14 15:42 | 50.12179 | 30.86635 | 3981 ft | 184 kts | 355° |
| 2026-04-14 15:42 | 50.13432 | 30.86606 | 3871 ft | 177 kts | 358° |
| 2026-04-14 15:43 | 50.14639 | 30.86654 | 3793 ft | 168 kts | 360° |
| 2026-04-14 15:43 | 50.15783 | 30.86724 | 3658 ft | 164 kts | 0° |
| 2026-04-14 15:43 | 50.16914 | 30.86805 | 3461 ft | 162 kts | 0° |
| 2026-04-14 15:43 | 50.18034 | 30.86890 | 3228 ft | 159 kts | 360° |
| 2026-04-14 15:44 | 50.19126 | 30.86968 | 3009 ft | 155 kts | 360° |
| 2026-04-14 15:44 | 50.19739 | 30.87013 | 2896 ft | 157 kts | 360° |
| 2026-04-14 15:44 | 50.20155 | 30.87043 | 2821 ft | 158 kts | 360° |
| 2026-04-14 15:44 | 50.21264 | 30.87124 | 2588 ft | 159 kts | 0° |
| 2026-04-14 15:45 | 50.22350 | 30.87206 | 2372 ft | 152 kts | 0° |
| 2026-04-14 15:45 | 50.23345 | 30.87282 | 2203 ft | 134 kts | 360° |
| 2026-04-14 15:45 | 50.24281 | 30.87349 | 2002 ft | 132 kts | 360° |
| 2026-04-14 15:45 | 50.25170 | 30.87414 | 1829 ft | 127 kts | 359° |
| 2026-04-14 15:46 | 50.26046 | 30.87479 | 1649 ft | 126 kts | 360° |
| 2026-04-14 15:46 | 50.26920 | 30.87543 | 1473 ft | 126 kts | 360° |
| 2026-04-14 15:46 | 50.27800 | 30.87608 | 1301 ft | 127 kts | 359° |
| 2026-04-14 15:46 | 50.28688 | 30.87681 | 1128 ft | 130 kts | 1° |
| 2026-04-14 15:47 | 50.29616 | 30.87751 | 867 ft | 135 kts | 0° |
| 2026-04-14 15:47 | 50.30548 | 30.87831 | 702 ft | 131 kts | 1° |
| 2026-04-14 15:47 | 50.31451 | 30.87891 | 566 ft | 129 kts | 359° |
| 2026-04-14 15:47 | 50.32335 | 30.87943 | 424 ft | 127 kts | 0° |
| 2026-04-14 15:48 | 50.33132 | 30.87972 | 415 ft | 96 kts | 359° |
| 2026-04-14 15:48 | 50.33654 | 30.88041 | 411 ft | 54 kts | 5° |
| 2026-04-14 15:48 | 50.33882 | 30.88067 | 413 ft | 12 kts | 7° |
| 2026-04-14 15:48 | 50.33893 | 30.88069 | 421 ft | 0 kts | 7° |
| 2026-04-14 15:49 | 50.33912 | 30.88071 | 415 ft | 8 kts | 2° |
| 2026-04-14 15:49 | 50.34040 | 30.88075 | 421 ft | 27 kts | 2° |
| 2026-04-14 15:49 | 50.34287 | 30.88087 | 417 ft | 38 kts | 2° |
| 2026-04-14 15:49 | 50.34493 | 30.88155 | 422 ft | 27 kts | 33° |
| 2026-04-14 15:50 | 50.34607 | 30.88300 | 417 ft | 15 kts | 67° |
| 2026-04-14 15:50 | 50.34611 | 30.88343 | 423 ft | 0 kts | 93° |
| 2026-04-14 15:50 | 50.29403 | 30.87735 | 928 ft | 135 kts | 360° |
| 2026-04-14 15:50 | 50.30340 | 30.87808 | 728 ft | 132 kts | 0° |
| 2026-04-14 15:51 | 50.31233 | 30.87882 | 592 ft | 130 kts | 359° |
| 2026-04-14 15:51 | 50.32131 | 30.87928 | 453 ft | 129 kts | 0° |
| 2026-04-14 15:51 | 50.32971 | 30.87976 | 418 ft | 106 kts | 360° |
| 2026-04-14 15:51 | 50.32048 | 30.87923 | 462 ft | 129 kts | 360° |
| 2026-04-14 15:52 | 50.32902 | 30.87976 | 418 ft | 110 kts | 0° |
| 2026-04-14 15:52 | 50.33515 | 30.88015 | 419 ft | 68 kts | 6° |